Tecumseh, Kansas
Current Conditions -  °F | °C
As of 1:53 PM on Thursday 30 Oct 2014 (Local Time) from KTOP Reporting Station
Clear Clear  
Wind Chill: 70°   Ceiling: Unl
Heat Index: 70°   Visibility: 10mi
Dew Point: 40°   Wind: 15mph
Humidity: 33%   Direction: 340°NNW
Pressure: 30.05"   Gusts: NA
Location:  39.05°N, 95.58°W
Report Text: KTOP 301853Z 34013KT 10SM CLR 21/04 A3005 RMK AO2 PK WND 31026/1756 SLP173 T02110044
Loading
Personal Weather Stations






























Interactive Weather Map
Tropical Storm Tracking
New forecast layout! Learn more

10-Day Weather Forecast

Advertisements
Track Severe Weather on mobile